Time;durP1;ratioP1;P1;durP2;ratioP2;P2;SDS_P1;SDS_P2;PMS_P1;PMS_P2;Temp;Humidity;BMP_temperature;BMP_pressure;BME280_temperature;BME280_humidity;BME280_pressure;Samples;Min_cycle;Max_cycle;Signal;HPM_P1;HPM_P2
2023/02/12 00:01:23;;;;;;;41.20;15.80;;;;;;;5.21;100.00;101761.26;106820;1279;24220;-56
2023/02/12 00:03:54;;;;;;;32.40;15.80;;;;;;;5.20;100.00;101759.27;106798;1276;22550;-60
2023/02/12 00:06:25;;;;;;;35.40;14.30;;;;;;;5.20;100.00;101758.58;106706;1279;22542;-59
2023/02/12 00:08:58;;;;;;;33.30;14.90;;;;;;;5.20;100.00;101761.03;106759;1276;25502;-59
2023/02/12 00:11:31;;;;;;;36.30;16.30;;;;;;;5.20;100.00;101763.33;106874;1271;22532;-58
2023/02/12 00:14:04;;;;;;;33.60;14.90;;;;;;;5.21;100.00;101761.27;106782;1279;25509;-59
2023/02/12 00:16:36;;;;;;;34.90;15.30;;;;;;;5.20;100.00;101764.27;106848;1272;24114;-58
2023/02/12 00:19:07;;;;;;;32.20;15.00;;;;;;;5.20;100.00;101770.13;106795;1273;25966;-58
2023/02/12 00:21:39;;;;;;;33.30;14.50;;;;;;;5.20;100.00;101775.04;106875;1276;24250;-59
2023/02/12 00:24:10;;;;;;;34.50;13.50;;;;;;;5.20;100.00;101769.41;106739;1279;22606;-59
2023/02/12 00:26:41;;;;;;;31.40;13.80;;;;;;;5.20;100.00;101762.84;107216;1277;22795;-57
2023/02/12 00:29:13;;;;;;;29.10;13.20;;;;;;;5.20;100.00;101769.16;106875;1278;22890;-58
2023/02/12 00:31:44;;;;;;;33.80;13.00;;;;;;;5.21;100.00;101770.67;106808;1264;24209;-58
2023/02/12 00:34:15;;;;;;;32.40;13.00;;;;;;;5.21;100.00;101769.81;106883;1276;24370;-59
2023/02/12 00:36:46;;;;;;;34.20;14.50;;;;;;;5.22;100.00;101768.14;106757;1277;23143;-60
2023/02/12 00:39:17;;;;;;;33.20;13.50;;;;;;;5.22;100.00;101762.84;106853;1279;24319;-56
2023/02/12 00:41:48;;;;;;;33.40;12.80;;;;;;;5.23;100.00;101767.82;106803;1279;23163;-61
2023/02/12 00:44:20;;;;;;;38.40;13.40;;;;;;;5.23;100.00;101769.95;106892;1279;22821;-58
2023/02/12 00:46:51;;;;;;;32.90;11.40;;;;;;;5.24;100.00;101769.62;106848;1279;22521;-59
2023/02/12 00:49:22;;;;;;;31.80;13.60;;;;;;;5.25;100.00;101771.20;106770;1276;25558;-58
2023/02/12 00:51:53;;;;;;;31.50;12.90;;;;;;;5.25;100.00;101772.94;106790;1276;22553;-60
2023/02/12 00:54:25;;;;;;;31.90;13.00;;;;;;;5.26;100.00;101777.60;106738;1279;22619;-59
2023/02/12 00:56:57;;;;;;;30.60;12.00;;;;;;;5.27;100.00;101779.19;106733;1264;22545;-59
2023/02/12 00:59:30;;;;;;;37.00;14.00;;;;;;;5.26;100.00;101783.30;106994;1279;22524;-61
2023/02/12 01:02:01;;;;;;;31.70;12.80;;;;;;;5.28;100.00;101785.02;107001;1279;22588;-60
2023/02/12 01:04:32;;;;;;;28.90;11.90;;;;;;;5.28;100.00;101785.34;106928;1279;24307;-58
2023/02/12 01:07:03;;;;;;;36.30;13.60;;;;;;;5.28;100.00;101790.08;106728;1279;22775;-58
2023/02/12 01:09:35;;;;;;;32.20;14.00;;;;;;;5.29;100.00;101802.34;106824;1279;22561;-60
2023/02/12 01:12:07;;;;;;;34.80;11.20;;;;;;;5.29;100.00;101820.62;106724;1276;22540;-61
2023/02/12 01:14:39;;;;;;;31.60;11.70;;;;;;;5.28;100.00;101819.91;106768;1273;22546;-57
2023/02/12 01:17:11;;;;;;;28.90;11.90;;;;;;;5.28;100.00;101815.39;106820;1268;25334;-59
2023/02/12 01:19:42;;;;;;;32.90;15.80;;;;;;;5.28;100.00;101818.33;106849;1279;22703;-58
2023/02/12 01:22:13;;;;;;;33.50;15.60;;;;;;;5.26;100.00;101824.20;106841;1275;24320;-59
2023/02/12 01:24:44;;;;;;;33.10;14.10;;;;;;;5.24;100.00;101832.52;106773;1277;22527;-59
2023/02/12 01:27:17;;;;;;;30.80;13.00;;;;;;;5.22;100.00;101836.02;106782;1279;22542;-61
2023/02/12 01:29:48;;;;;;;37.70;18.10;;;;;;;5.21;100.00;101836.97;106835;1274;24355;-59
2023/02/12 01:32:19;;;;;;;33.90;14.70;;;;;;;5.18;100.00;101833.34;106770;1258;25431;-59
2023/02/12 01:34:50;;;;;;;29.10;13.90;;;;;;;5.13;100.00;101837.95;106822;1279;22661;-58
2023/02/12 01:37:22;;;;;;;32.90;14.70;;;;;;;5.10;100.00;101844.05;106758;1277;25973;-59
2023/02/12 01:39:53;;;;;;;36.60;15.90;;;;;;;5.08;100.00;101848.66;106831;1273;22726;-61
2023/02/12 01:42:24;;;;;;;28.20;13.20;;;;;;;5.07;100.00;101848.67;106748;1276;22611;-59
2023/02/12 01:45:51;;;;;;;29.90;13.60;;;;;;;5.05;100.00;101846.70;106736;1276;24341;-58
2023/02/12 01:48:26;;;;;;;34.20;14.50;;;;;;;5.03;100.00;101852.64;106748;1270;22634;-58
2023/02/12 01:51:00;;;;;;;30.80;12.80;;;;;;;5.01;100.00;101856.20;106633;1278;22680;-60
2023/02/12 01:53:36;;;;;;;26.60;12.70;;;;;;;5.00;100.00;101855.50;106656;1274;23518;-60
2023/02/12 01:56:09;;;;;;;31.30;13.00;;;;;;;4.99;100.00;101857.40;106711;1280;25432;-60
2023/02/12 01:58:44;;;;;;;41.30;14.10;;;;;;;4.99;100.00;101858.75;106707;1280;25432;-61
2023/02/12 02:01:18;;;;;;;29.80;11.90;;;;;;;5.00;100.00;101860.40;106653;1268;22527;-59
2023/02/12 02:03:53;;;;;;;29.60;13.10;;;;;;;5.00;100.00;101861.11;106619;1268;23416;-58
2023/02/12 02:06:28;;;;;;;35.20;12.70;;;;;;;5.01;100.00;101863.48;106707;1274;22682;-61
2023/02/12 02:08:59;;;;;;;34.00;13.60;;;;;;;5.01;100.00;101864.27;106797;1274;24956;-58
2023/02/12 02:14:35;;;;;;;34.00;13.40;;;;;;;5.02;100.00;101869.33;106572;1274;22542;-59
2023/02/12 02:17:21;;;;;;;34.20;12.60;;;;;;;5.03;100.00;101868.45;106567;1273;25619;-60
2023/02/12 02:20:25;;;;;;;35.60;13.90;;;;;;;5.04;100.00;101865.68;106736;1279;22540;-58
2023/02/12 02:23:10;;;;;;;28.70;12.00;;;;;;;5.03;100.00;101869.71;106749;1279;25584;-59
2023/02/12 02:26:06;;;;;;;30.00;12.50;;;;;;;5.02;100.00;101873.05;106932;1279;24211;-60
2023/02/12 02:28:58;;;;;;;32.60;12.30;;;;;;;5.01;100.00;101880.40;107210;1279;25620;-60
2023/02/12 02:31:35;;;;;;;29.30;11.50;;;;;;;4.99;100.00;101886.42;106749;1275;312709;-58
2023/02/12 02:34:18;;;;;;;32.60;12.30;;;;;;;4.96;100.00;101886.82;106851;1261;22548;-58
2023/02/12 02:36:56;;;;;;;26.20;12.00;;;;;;;4.93;100.00;101889.75;106831;1277;22539;-59
2023/02/12 02:39:37;;;;;;;30.80;12.00;;;;;;;4.91;100.00;101892.22;106852;1277;22556;-59
2023/02/12 02:42:15;;;;;;;39.30;12.80;;;;;;;4.89;100.00;101896.81;106836;1277;24202;-59
2023/02/12 02:44:52;;;;;;;33.30;10.70;;;;;;;4.87;100.00;101901.72;106760;1278;22551;-58
2023/02/12 02:47:32;;;;;;;30.20;10.70;;;;;;;4.86;100.00;101901.00;106936;1265;22783;-61
2023/02/12 02:50:09;;;;;;;29.20;10.40;;;;;;;4.86;100.00;101906.23;106780;1274;22552;-61
2023/02/12 02:52:44;;;;;;;28.40;10.90;;;;;;;4.85;100.00;101907.03;106852;1274;22548;-61
2023/02/12 02:55:17;;;;;;;28.90;9.20;;;;;;;4.85;100.00;101917.30;106782;1279;23804;-59
2023/02/12 02:57:55;;;;;;;24.00;9.20;;;;;;;4.85;100.00;101912.55;106792;1279;24294;-59
2023/02/12 03:00:33;;;;;;;33.50;11.20;;;;;;;4.84;100.00;101913.91;106836;1279;24371;-60
2023/02/12 03:03:17;;;;;;;26.00;9.50;;;;;;;4.83;100.00;101915.64;106707;1279;22562;-58
2023/02/12 03:05:53;;;;;;;33.70;9.80;;;;;;;4.81;100.00;101920.88;106831;1277;24413;-59
2023/02/12 03:08:28;;;;;;;33.10;11.40;;;;;;;4.80;100.00;101920.55;106850;1274;22543;-60
2023/02/12 03:11:05;;;;;;;39.20;10.30;;;;;;;4.81;100.00;101928.22;106806;1279;24765;-59
2023/02/12 03:13:43;;;;;;;27.50;9.00;;;;;;;4.81;100.00;101937.48;106779;1274;24208;-59
2023/02/12 03:16:21;;;;;;;30.70;11.30;;;;;;;4.82;100.00;101938.98;106711;1277;22563;-58
2023/02/12 03:19:00;;;;;;;34.00;9.10;;;;;;;4.82;100.00;101948.55;106917;1267;25260;-57
2023/02/12 03:21:35;;;;;;;27.90;7.80;;;;;;;4.81;100.00;101942.92;106726;1276;22579;-56
2023/02/12 03:24:11;;;;;;;32.20;11.00;;;;;;;4.81;100.00;101946.56;106914;1265;23531;-57
2023/02/12 03:26:47;;;;;;;27.80;9.40;;;;;;;4.80;100.00;101950.77;106788;1279;22661;-60
2023/02/12 03:29:18;;;;;;;22.00;8.80;;;;;;;4.79;100.00;101948.31;106825;1274;24793;-58
2023/02/12 03:32:04;;;;;;;26.40;9.30;;;;;;;4.79;100.00;101952.09;106750;1279;22534;-58
2023/02/12 03:34:46;;;;;;;29.10;9.40;;;;;;;4.78;100.00;101954.70;106716;1271;22540;-60
2023/02/12 03:37:22;;;;;;;30.20;9.00;;;;;;;4.77;100.00;101952.49;106707;1276;22567;-60
2023/02/12 03:39:58;;;;;;;29.40;9.90;;;;;;;4.75;100.00;101962.23;106811;1279;26560;-59
2023/02/12 03:42:39;;;;;;;35.10;10.10;;;;;;;4.74;100.00;101970.45;106864;1279;22663;-60
2023/02/12 03:45:29;;;;;;;29.10;9.80;;;;;;;4.73;100.00;101967.77;106853;1274;25428;-59
2023/02/12 03:48:09;;;;;;;39.90;10.10;;;;;;;4.73;100.00;101975.43;106840;1279;22660;-58
2023/02/12 03:50:47;;;;;;;40.40;11.20;;;;;;;4.74;100.00;101985.39;106860;1279;23161;-59
2023/02/12 03:53:19;;;;;;;31.10;9.10;;;;;;;4.74;100.00;101989.09;106818;1271;22662;-60
2023/02/12 03:55:56;;;;;;;35.20;9.60;;;;;;;4.73;100.00;101986.90;106823;1279;22590;-60
2023/02/12 03:58:32;;;;;;;32.80;10.10;;;;;;;4.73;100.00;101988.31;107010;1276;22657;-58
2023/02/12 04:01:04;;;;;;;34.80;10.30;;;;;;;4.73;100.00;101991.09;106817;1273;22540;-58
2023/02/12 04:03:36;;;;;;;27.70;10.70;;;;;;;4.73;100.00;101998.35;106796;1276;22655;-58
2023/02/12 04:06:21;;;;;;;29.40;9.10;;;;;;;4.73;100.00;101999.30;106770;1277;23206;-58
2023/02/12 04:08:53;;;;;;;29.40;9.00;;;;;;;4.73;100.00;102003.89;106979;1274;24711;-59
2023/02/12 04:11:33;;;;;;;31.40;10.20;;;;;;;4.73;100.00;102006.56;106778;1279;22546;-61
2023/02/12 04:14:14;;;;;;;32.50;10.90;;;;;;;4.72;100.00;102006.89;106910;1271;22546;-58
2023/02/12 04:16:51;;;;;;;29.90;10.10;;;;;;;4.72;100.00;102004.52;106820;1271;23790;-58
2023/02/12 04:19:48;;;;;;;39.50;11.50;;;;;;;4.72;100.00;102007.05;106832;1277;22547;-61
2023/02/12 04:22:35;;;;;;;31.90;10.30;;;;;;;4.73;100.00;102013.45;106833;1265;22778;-60
2023/02/12 04:25:21;;;;;;;36.90;10.20;;;;;;;4.74;100.00;102013.20;106826;1277;22482;-60
2023/02/12 04:28:03;;;;;;;35.40;10.20;;;;;;;4.74;100.00;102017.00;107103;1273;24226;-59
2023/02/12 04:30:40;;;;;;;31.80;9.90;;;;;;;4.73;100.00;102021.67;106988;1277;25264;-60
2023/02/12 04:33:16;;;;;;;30.10;8.80;;;;;;;4.73;100.00;102021.98;106719;1279;22559;-61
2023/02/12 04:35:51;;;;;;;30.50;9.70;;;;;;;4.73;100.00;102028.63;107011;1279;22609;-61
2023/02/12 04:38:27;;;;;;;33.10;10.30;;;;;;;4.73;100.00;102029.19;106777;1275;25971;-58
2023/02/12 04:41:00;;;;;;;39.90;11.80;;;;;;;4.73;100.00;102032.97;106742;1279;23033;-56
2023/02/12 04:43:34;;;;;;;33.30;9.00;;;;;;;4.73;100.00;102033.61;106864;1276;22748;-58
2023/02/12 04:46:07;;;;;;;30.90;9.10;;;;;;;4.72;100.00;102041.42;106805;1279;22653;-60
2023/02/12 04:48:53;;;;;;;31.30;9.90;;;;;;;4.71;100.00;102045.79;106737;1274;22547;-58
2023/02/12 04:51:24;;;;;;;32.80;9.60;;;;;;;4.69;100.00;102050.84;106903;1276;22800;-59
2023/02/12 04:53:56;;;;;;;43.70;11.70;;;;;;;4.68;100.00;102051.40;106845;1277;22740;-60
2023/02/12 04:56:27;;;;;;;37.70;10.90;;;;;;;4.68;100.00;102053.29;106857;1279;22539;-60
2023/02/12 04:58:58;;;;;;;40.10;12.10;;;;;;;4.68;100.00;102056.45;106729;1279;24192;-58
2023/02/12 05:01:29;;;;;;;38.10;11.80;;;;;;;4.68;100.00;102056.05;106901;1273;23166;-58
2023/02/12 05:04:00;;;;;;;35.70;10.40;;;;;;;4.66;100.00;102053.53;106806;1277;22527;-57
2023/02/12 05:06:34;;;;;;;33.60;9.10;;;;;;;4.64;100.00;102059.70;106739;1279;23033;-61
2023/02/12 05:09:05;;;;;;;41.40;10.30;;;;;;;4.64;100.00;102067.04;106798;1277;22556;-58
2023/02/12 05:11:36;;;;;;;36.50;10.20;;;;;;;4.64;100.00;102070.84;106734;1271;23023;-60
2023/02/12 05:14:07;;;;;;;39.70;13.10;;;;;;;4.63;100.00;102070.99;106725;1274;22534;-59
2023/02/12 05:16:40;;;;;;;42.30;14.80;;;;;;;4.63;100.00;102071.40;106899;1279;24163;-58
2023/02/12 05:19:11;;;;;;;40.70;11.60;;;;;;;4.62;100.00;102072.89;106772;1277;22533;-57
2023/02/12 05:21:42;;;;;;;43.60;12.30;;;;;;;4.62;100.00;102075.83;106796;1267;24712;-60
2023/02/12 05:24:13;;;;;;;31.80;11.00;;;;;;;4.61;100.00;102079.30;106726;1279;22530;-58
2023/02/12 05:26:45;;;;;;;35.60;12.30;;;;;;;4.62;100.00;102078.89;106672;1274;22746;-59
2023/02/12 05:29:16;;;;;;;36.60;12.00;;;;;;;4.61;100.00;102083.64;106831;1279;22547;-59
2023/02/12 05:31:48;;;;;;;42.80;12.70;;;;;;;4.61;100.00;102083.34;106850;1279;22649;-60
2023/02/12 05:34:19;;;;;;;41.00;14.00;;;;;;;4.61;100.00;102087.36;106743;1279;22534;-60
2023/02/12 05:36:50;;;;;;;38.50;12.60;;;;;;;4.61;100.00;102090.68;106677;1268;22543;-59
2023/02/12 05:39:21;;;;;;;49.10;15.10;;;;;;;4.61;100.00;102091.39;106712;1274;25465;-58
2023/02/12 05:41:53;;;;;;;36.10;12.40;;;;;;;4.60;100.00;102094.63;106745;1267;22841;-58
2023/02/12 05:44:24;;;;;;;51.60;15.20;;;;;;;4.59;100.00;102096.98;106700;1273;25438;-58
2023/02/12 05:46:55;;;;;;;43.80;12.60;;;;;;;4.59;100.00;102101.50;106740;1269;25727;-60
2023/02/12 05:49:27;;;;;;;45.00;13.70;;;;;;;4.59;100.00;102105.36;106704;1279;25495;-59
2023/02/12 05:51:58;;;;;;;53.40;16.00;;;;;;;4.60;100.00;102114.38;106781;1279;24903;-60
2023/02/12 05:54:29;;;;;;;46.00;13.60;;;;;;;4.61;100.00;102117.16;106722;1277;22532;-61
2023/02/12 05:57:00;;;;;;;47.40;13.50;;;;;;;4.61;100.00;102119.61;106772;1273;25435;-60
2023/02/12 05:59:32;;;;;;;42.70;13.50;;;;;;;4.62;100.00;102126.72;106722;1279;24279;-59
2023/02/12 06:02:03;;;;;;;43.30;13.80;;;;;;;4.63;100.00;102134.55;106771;1279;23936;-60
2023/02/12 06:04:34;;;;;;;49.40;14.00;;;;;;;4.63;100.00;102135.33;106553;1279;22632;-60
2023/02/12 06:07:07;;;;;;;44.10;13.50;;;;;;;4.65;100.00;102145.30;106623;1279;25313;-60
2023/02/12 06:09:39;;;;;;;42.20;12.00;;;;;;;4.66;100.00;102152.10;106565;1279;22527;-59
2023/02/12 06:12:10;;;;;;;43.70;12.60;;;;;;;4.68;100.00;102155.81;106673;1276;22529;-61
2023/02/12 06:14:42;;;;;;;43.30;13.00;;;;;;;4.69;100.00;102161.58;106582;1279;22533;-59
2023/02/12 06:17:14;;;;;;;47.20;12.50;;;;;;;4.71;100.00;102164.19;106625;1274;25563;-59
2023/02/12 06:19:45;;;;;;;48.80;14.30;;;;;;;4.73;100.00;102165.46;106616;1279;23969;-61
2023/02/12 06:22:16;;;;;;;46.20;14.00;;;;;;;4.74;100.00;102170.45;106675;1277;22629;-59
2023/02/12 06:24:47;;;;;;;40.80;12.10;;;;;;;4.77;100.00;102176.45;106618;1276;22540;-62
2023/02/12 06:27:19;;;;;;;41.10;13.40;;;;;;;4.78;100.00;102183.17;106736;1279;25439;-61
2023/02/12 06:29:50;;;;;;;36.90;12.00;;;;;;;4.80;100.00;102185.65;106715;1273;22558;-59
2023/02/12 06:32:21;;;;;;;35.10;12.80;;;;;;;4.82;100.00;102187.86;106463;1274;22697;-59
2023/02/12 06:34:52;;;;;;;48.70;15.40;;;;;;;4.84;100.00;102194.19;106691;1279;22540;-61
2023/02/12 06:37:23;;;;;;;42.20;14.00;;;;;;;4.85;100.00;102194.73;106678;1279;25483;-61
2023/02/12 06:39:54;;;;;;;45.40;14.10;;;;;;;4.85;100.00;102203.44;106566;1273;23991;-60
2023/02/12 06:42:25;;;;;;;40.40;14.20;;;;;;;4.87;100.00;102206.13;106483;1279;24235;-59
2023/02/12 06:44:56;;;;;;;48.50;15.60;;;;;;;4.89;100.00;102205.66;106686;1276;22533;-61
2023/02/12 06:47:28;;;;;;;38.90;13.00;;;;;;;4.91;100.00;102208.34;106580;1274;23091;-59
2023/02/12 06:49:59;;;;;;;38.60;13.10;;;;;;;4.92;100.00;102210.40;106622;1279;22566;-59
2023/02/12 06:52:31;;;;;;;36.90;12.70;;;;;;;4.93;100.00;102211.60;106563;1279;22666;-62
2023/02/12 06:55:02;;;;;;;40.00;14.10;;;;;;;4.92;100.00;102214.60;106577;1277;22550;-60
2023/02/12 06:57:33;;;;;;;36.80;11.20;;;;;;;4.92;100.00;102220.84;106603;1274;22615;-59
2023/02/12 07:00:05;;;;;;;41.50;12.20;;;;;;;4.91;100.00;102221.62;106224;1272;22512;-60
2023/02/12 07:02:36;;;;;;;40.60;13.70;;;;;;;4.88;100.00;102221.30;106551;1279;22625;-59
2023/02/12 07:05:09;;;;;;;36.10;13.10;;;;;;;4.87;100.00;102219.25;106608;1279;25218;-61
2023/02/12 07:07:40;;;;;;;47.70;13.00;;;;;;;4.88;100.00;102227.88;106611;1279;22547;-61
2023/02/12 07:10:12;;;;;;;45.50;14.90;;;;;;;4.87;100.00;102236.80;106541;1279;22533;-62
2023/02/12 07:12:46;;;;;;;39.30;13.70;;;;;;;4.88;100.00;102236.41;106796;1277;22554;-60
2023/02/12 07:15:18;;;;;;;40.30;14.40;;;;;;;4.91;100.00;102240.61;106560;1276;22547;-60
2023/02/12 07:17:50;;;;;;;46.20;14.10;;;;;;;4.93;100.00;102244.64;106491;1279;22553;-62
2023/02/12 07:20:22;;;;;;;37.10;14.20;;;;;;;4.93;100.00;102252.00;106558;1279;24482;-60
2023/02/12 07:22:53;;;;;;;52.80;16.30;;;;;;;4.93;100.00;102256.11;106679;1279;22547;-59
2023/02/12 07:25:24;;;;;;;38.60;14.90;;;;;;;4.93;100.00;102257.45;106488;1277;22544;-60
2023/02/12 07:27:55;;;;;;;37.90;13.00;;;;;;;4.95;100.00;102259.52;106535;1279;24297;-59
2023/02/12 07:30:26;;;;;;;46.70;15.10;;;;;;;4.96;100.00;102263.70;106649;1276;24195;-60
2023/02/12 07:32:57;;;;;;;42.70;14.30;;;;;;;4.97;100.00;102264.97;106595;1279;22539;-60
2023/02/12 07:35:28;;;;;;;47.70;16.10;;;;;;;4.98;100.00;102265.70;106323;1263;22872;-60
2023/02/12 07:37:59;;;;;;;51.40;16.30;;;;;;;4.99;100.00;102265.22;106597;1279;24320;-58
2023/02/12 07:40:30;;;;;;;42.90;14.60;;;;;;;5.02;100.00;102266.17;106619;1276;22540;-60
2023/02/12 07:43:02;;;;;;;39.50;14.60;;;;;;;5.03;100.00;102264.20;106623;1272;25436;-59
2023/02/12 07:45:33;;;;;;;55.30;17.40;;;;;;;5.04;100.00;102268.55;106611;1279;22628;-59
2023/02/12 07:48:04;;;;;;;45.50;15.40;;;;;;;5.06;100.00;102269.90;106617;1274;24761;-61
2023/02/12 07:50:35;;;;;;;36.40;13.00;;;;;;;5.06;100.00;102272.91;106451;1267;22562;-59
2023/02/12 07:53:06;;;;;;;39.70;13.50;;;;;;;5.05;100.00;102272.83;106378;1274;23170;-62
2023/02/12 07:55:37;;;;;;;51.40;15.80;;;;;;;5.05;100.00;102270.92;106672;1279;25441;-59
2023/02/12 07:58:09;;;;;;;46.10;14.80;;;;;;;5.07;100.00;102277.34;106592;1279;25865;-62
2023/02/12 08:00:40;;;;;;;49.80;15.40;;;;;;;5.08;100.00;102283.90;106577;1279;23019;-58
2023/02/12 08:03:11;;;;;;;41.20;14.10;;;;;;;5.09;100.00;102287.86;106530;1273;23041;-62
2023/02/12 08:05:42;;;;;;;47.20;14.40;;;;;;;5.10;100.00;102289.70;106527;1279;23922;-59
2023/02/12 08:08:13;;;;;;;45.40;13.50;;;;;;;5.12;100.00;102295.53;106524;1279;23942;-59
2023/02/12 08:10:44;;;;;;;48.70;18.20;;;;;;;5.14;100.00;102290.64;106574;1279;25125;-59
2023/02/12 08:13:16;;;;;;;43.60;13.70;;;;;;;5.17;100.00;102292.88;106480;1273;22767;-59
2023/02/12 08:15:47;;;;;;;41.60;13.20;;;;;;;5.19;100.00;102294.69;106470;1273;22553;-61
2023/02/12 08:18:18;;;;;;;43.10;12.20;;;;;;;5.19;100.00;102296.35;106737;1270;24220;-59
2023/02/12 08:20:49;;;;;;;39.90;12.10;;;;;;;5.21;100.00;102300.86;106665;1277;22530;-58
2023/02/12 08:23:20;;;;;;;37.40;12.80;;;;;;;5.22;100.00;102303.64;106550;1270;22615;-59
2023/02/12 08:25:51;;;;;;;30.40;10.60;;;;;;;5.23;100.00;102298.27;106445;1279;22543;-59
2023/02/12 08:28:23;;;;;;;36.10;11.20;;;;;;;5.24;100.00;102300.94;106378;1273;25464;-59
2023/02/12 08:31:00;;;;;;;36.10;11.70;;;;;;;5.25;100.00;102304.12;106762;1277;22556;-60
2023/02/12 08:33:30;;;;;;;35.70;11.60;;;;;;;5.25;100.00;102301.11;106584;1267;23751;-59
2023/02/12 08:36:08;;;;;;;35.20;12.00;;;;;;;5.24;100.00;102304.75;106580;1279;24295;-62
2023/02/12 08:38:40;;;;;;;38.20;11.30;;;;;;;5.23;100.00;102303.64;106640;1276;22793;-60
2023/02/12 08:41:13;;;;;;;38.50;10.80;;;;;;;5.21;100.00;102305.07;106580;1279;24399;-59
2023/02/12 08:43:45;;;;;;;32.50;9.40;;;;;;;5.20;100.00;102305.92;106631;1279;24378;-62
2023/02/12 08:46:18;;;;;;;34.00;11.50;;;;;;;5.20;100.00;102309.64;106635;1277;22540;-60
2023/02/12 08:48:52;;;;;;;34.50;11.40;;;;;;;5.22;100.00;102315.50;106544;1279;22678;-59
2023/02/12 08:51:25;;;;;;;33.00;10.60;;;;;;;5.25;100.00;102308.14;106574;1279;24208;-60
2023/02/12 08:53:58;;;;;;;28.00;9.40;;;;;;;5.28;100.00;102310.04;106572;1279;25269;-61
2023/02/12 08:56:31;;;;;;;37.30;9.40;;;;;;;5.31;100.00;102315.59;106604;1274;22597;-60
2023/02/12 08:59:04;;;;;;;30.90;9.40;;;;;;;5.33;100.00;102312.91;106389;1279;24117;-59
2023/02/12 09:01:38;;;;;;;31.80;10.50;;;;;;;5.35;100.00;102319.48;106310;1279;25351;-62
2023/02/12 09:04:12;;;;;;;40.20;10.20;;;;;;;5.36;100.00;102325.34;106400;1279;22556;-61
2023/02/12 09:06:44;;;;;;;31.20;10.00;;;;;;;5.37;100.00;102331.13;106402;1265;22550;-60
2023/02/12 09:09:15;;;;;;;39.90;13.40;;;;;;;5.38;100.00;102328.81;106567;1279;22542;-60
2023/02/12 09:11:47;;;;;;;30.20;9.70;;;;;;;5.39;100.00;102332.22;106752;1279;25486;-60
2023/02/12 09:14:22;;;;;;;33.00;10.60;;;;;;;5.41;100.00;102341.64;106472;1278;22538;-59
2023/02/12 09:16:56;;;;;;;33.60;9.70;;;;;;;5.42;100.00;102334.14;106533;1279;25973;-61
2023/02/12 09:19:28;;;;;;;34.80;12.10;;;;;;;5.44;100.00;102332.08;106518;1275;25520;-59
2023/02/12 09:21:59;;;;;;;30.20;8.00;;;;;;;5.47;100.00;102338.17;106600;1279;24331;-59
2023/02/12 09:24:31;;;;;;;31.70;9.40;;;;;;;5.49;100.00;102336.67;106586;1276;22595;-60
2023/02/12 09:27:02;;;;;;;30.30;9.00;;;;;;;5.54;100.00;102339.14;106583;1273;22561;-60
2023/02/12 09:29:33;;;;;;;30.90;9.60;;;;;;;5.56;100.00;102345.79;106310;1276;25303;-61
2023/02/12 09:32:05;;;;;;;38.20;10.70;;;;;;;5.62;100.00;102348.09;106558;1267;24145;-60
2023/02/12 09:34:37;;;;;;;33.50;11.40;;;;;;;5.67;100.00;102358.23;106482;1279;25437;-60
2023/02/12 09:37:09;;;;;;;32.10;9.30;;;;;;;5.68;100.00;102358.14;106375;1279;25365;-62
2023/02/12 09:39:40;;;;;;;35.40;9.10;;;;;;;5.69;100.00;102362.11;106555;1279;25307;-59
2023/02/12 09:42:31;;;;;;;31.00;10.00;;;;;;;5.71;100.00;102362.98;106273;1273;24262;-61
2023/02/12 09:45:13;;;;;;;36.20;11.90;;;;;;;5.74;100.00;102358.40;106403;1279;22549;-61
2023/02/12 09:47:52;;;;;;;39.50;10.00;;;;;;;5.79;100.00;102361.80;106185;1276;22582;-60
2023/02/12 09:50:46;;;;;;;34.80;9.70;;;;;;;5.83;100.00;102364.19;106253;1273;22553;-57
2023/02/12 09:53:21;;;;;;;36.10;11.10;;;;;;;5.87;100.00;102366.11;106501;1279;22534;-60
2023/02/12 09:55:52;;;;;;;33.20;9.50;;;;;;;5.88;100.00;102366.98;106691;1280;24345;-60
2023/02/12 09:58:34;;;;;;;34.40;10.40;;;;;;;5.91;99.98;102366.11;106759;1277;24394;-61
2023/02/12 10:01:12;;;;;;;36.70;10.50;;;;;;;5.98;100.00;102366.66;106581;1275;24279;-59
2023/02/12 10:03:45;;;;;;;36.00;10.80;;;;;;;6.08;100.00;102371.27;106404;1269;26544;-60
2023/02/12 10:06:20;;;;;;;32.40;7.60;;;;;;;6.17;100.00;102371.65;106463;1271;25342;-60
2023/02/12 10:09:09;;;;;;;24.80;7.10;;;;;;;6.22;99.74;102371.16;106458;1268;22557;-59
2023/02/12 10:12:01;;;;;;;26.80;7.90;;;;;;;6.25;99.55;102373.70;106539;1277;22540;-61
2023/02/12 10:15:05;;;;;;;27.20;7.50;;;;;;;6.28;99.26;102372.59;106183;1267;26064;-59
2023/02/12 10:17:42;;;;;;;23.30;6.00;;;;;;;6.30;98.67;102375.36;106163;1279;25328;-59
2023/02/12 10:20:36;;;;;;;23.10;4.90;;;;;;;6.30;98.16;102374.10;106148;1268;22540;-59
2023/02/12 10:23:24;;;;;;;24.40;4.60;;;;;;;6.31;98.21;102375.04;106071;1267;26548;-63
2023/02/12 10:25:57;;;;;;;23.20;6.50;;;;;;;6.32;97.86;102370.77;106043;1282;22537;-63
2023/02/12 10:28:33;;;;;;;23.20;6.40;;;;;;;6.31;97.95;102373.14;106215;1282;22544;-60
2023/02/12 10:31:07;;;;;;;26.00;6.20;;;;;;;6.31;97.44;102374.17;106233;1282;24398;-61
2023/02/12 10:33:42;;;;;;;25.90;7.20;;;;;;;6.32;98.10;102366.96;106269;1267;22674;-60
2023/02/12 10:36:29;;;;;;;26.40;6.50;;;;;;;6.35;97.98;102365.05;106302;1277;22586;-61
2023/02/12 10:39:07;;;;;;;21.20;6.40;;;;;;;6.39;97.78;102365.20;106244;1279;22645;-60
2023/02/12 10:41:43;;;;;;;28.40;6.60;;;;;;;6.43;97.86;102360.92;106268;1277;22587;-61
2023/02/12 10:44:15;;;;;;;39.10;8.30;;;;;;;6.48;97.96;102358.92;106162;1280;22545;-60
2023/02/12 10:46:46;;;;;;;36.60;8.80;;;;;;;6.51;97.80;102355.34;106266;1276;22667;-61
2023/02/12 10:49:20;;;;;;;27.20;6.80;;;;;;;6.52;97.71;102350.11;106289;1277;22535;-58
2023/02/12 10:52:08;;;;;;;28.90;7.90;;;;;;;6.55;97.58;102349.23;106185;1279;24300;-59
2023/02/12 10:54:42;;;;;;;25.30;6.80;;;;;;;6.59;97.46;102347.63;106526;1274;25574;-66
2023/02/12 10:57:24;;;;;;;26.80;7.70;;;;;;;6.62;97.32;102348.73;106577;1273;25630;-60
2023/02/12 10:59:57;;;;;;;27.00;7.20;;;;;;;6.66;97.11;102346.43;106481;1279;22979;-60
2023/02/12 11:02:31;;;;;;;19.30;6.50;;;;;;;6.64;96.13;102346.52;106987;1264;22664;-61
2023/02/12 11:05:26;;;;;;;32.20;8.20;;;;;;;6.61;95.89;102345.65;106589;1279;22533;-59
2023/02/12 11:07:57;;;;;;;34.20;8.10;;;;;;;6.58;96.09;102346.21;106447;1279;22527;-59
2023/02/12 11:10:36;;;;;;;25.40;5.90;;;;;;;6.58;96.05;102346.05;106775;1276;22538;-62
2023/02/12 11:13:22;;;;;;;30.20;6.00;;;;;;;6.60;95.89;102340.41;106527;1273;22676;-60
2023/02/12 11:16:04;;;;;;;;;;;;;;;;;;;;;
2023/02/12 11:18:36;;;;;;;25.30;6.80;;;;;;;6.69;95.47;102335.31;106652;1279;22540;-60
2023/02/12 11:21:10;;;;;;;22.70;5.90;;;;;;;6.73;95.61;102341.58;106546;1274;24429;-61
2023/02/12 11:23:44;;;;;;;27.00;6.70;;;;;;;6.77;95.36;102344.24;106591;1276;22540;-61
2023/02/12 11:26:29;;;;;;;23.40;7.30;;;;;;;6.80;95.34;102337.24;106650;1279;24320;-59
2023/02/12 11:29:01;;;;;;;17.20;5.60;;;;;;;6.83;95.11;102337.55;106635;1279;22536;-59
2023/02/12 11:31:35;;;;;;;23.20;6.40;;;;;;;6.84;95.04;102331.21;106812;1273;24338;-59
2023/02/12 11:34:15;;;;;;;28.60;7.10;;;;;;;6.87;94.68;102334.84;106714;1276;24403;-60
2023/02/12 11:36:49;;;;;;;23.40;5.10;;;;;;;6.90;94.68;102334.73;106638;1276;24264;-60
2023/02/12 11:39:24;;;;;;;27.60;6.50;;;;;;;6.93;94.58;102332.35;106629;1267;24262;-59
2023/02/12 11:41:58;;;;;;;28.30;6.60;;;;;;;6.98;94.90;102328.29;106605;1264;25252;-60
2023/02/12 11:44:34;;;;;;;28.10;6.40;;;;;;;7.04;94.32;102329.45;106515;1263;25357;-60